Debary, FL (32713)

10:23 AM EDT on August 29, 2014 (GMT -0400)
Saxon Woods | Change Station
CLOSE
Current Station
Personal Weather Station
Location: De Bary, FL
Elevation: 88 ft
Nearby Weather Stations

Elev 88 ft 28.91 °N, 81.30 °W | Updated 43 seconds ago

Clear
Clear
87.5 °F
Feels Like 103 °F
N
2.0
Wind Variable Wind from SE
Gusts 2.0 mph

Today
High -- | Low -- °F
--% Chance of Precip.
Yesterday
High -- | Low -- °F
Precip. -- in
7:01 AM 7:50 PM
Waxing Crescent, 14% visible
Pressure 30.05 in
Visibility 10.0 miles
Clouds Clear
Heat Index 103 °F
Dew Point 79 °F
Humidity 77%
Rainfall 0.00 in
Snow Depth Not available.
UV 5 out of 12
Pollen 7.40 out of 12
Air Quality Not available.
Flu Activity Not available.
METAR KSFB 291353Z 19005KT 10SM CLR 29/24 A3006 RMK AO2 SLP176 T02940244

More Conditions Fewer Conditions

Pressure 30.05 in
Visibility 10.0 miles
Clouds Clear
Heat Index 103 °F
Dew Point 79 °F
Humidity 77%
Rainfall 0.00 in
Snow Depth Not available.
UV 5 out of 12
Pollen 7.40 out of 12
Air Quality Not available.
Flu Activity Not available.
METAR KSFB 291353Z 19005KT 10SM CLR 29/24 A3006 RMK AO2 SLP176 T02940244

More Conditions Fewer Conditions

Nowcast | as of 9:48 am EDT on August 29, 2014

Deeper moisture that has moved in from the south over the last 24 hours...combined with a bit more instability aloft will result in a greater coverage of storms this afternoon than in the past several days. Showers will form by noon along the Treasure Coast as the sea breeze begins to develop. Activity will increase and spread north towards the interior during the afternoon. Storm strength and coverage will be greatest over the interior and along the coast north of the cape from mid to late afternoon. Individual storm motion will be relatively slow towards the north and northeast at 10 mph. Additional details...including graphics are available online at: http://www.Srh.NOAA.Gov/mlb/blog.Php

×

10-Day Weather Forecast

Almanac

Astronomy

Aug. 29, 2014 Rise Set
Actual Time 7:01 AM EDT 7:50 PM EDT
Civil Twilight 6:37 AM EDT 8:14 PM EDT
Nautical Twilight 6:08 AM EDT 8:42 PM EDT
Astronomical Twilight 5:39 AM EDT 9:11 PM EDT
Moon 10:28 AM EDT 10:09 PM EDT
Length of Visible Light 13h 36m
Length of Day
12h 48m
Tomorrow will be 1m 38s shorter.
Waxing Crescent, 14% of the Moon is Illuminated
Today
Waxing Crescent
Sep 2
First Quarter
Sep 8
Full
Sep 15
Last Quarter
Sep 24
New

Today's Extremes

State Highs State Lows

Community

WunderPhotos

Upload Photos

1,748,246 photos uploaded!

Nearby

Snow Depth

Station Depth Elevation
No new snow has been reported.

Earthquake Activity

City Distance Mag. Time & Date
No recent earthquake activity has been reported nearby.
Minimum magnitude displayed is 2.5.

Coastal Water Temperatures

Place Temperature
Trident Pier, FL 84.0 °F
Mayport (Bar Pilots Dock), FL 84.0 °F
Fernandina Beach, FL 82.9 °F
McKay Bay Entrance, FL 89.1 °F

Nearby Weather Stations